sensor_id;sensor_type;location;lat;lon;timestamp;temperature;humidity
43087;DHT22;28708;52.224;6.924;2022-10-16T00:00:34;13.10;99.90
43087;DHT22;28708;52.224;6.924;2022-10-16T00:03:02;13.10;99.90
43087;DHT22;28708;52.224;6.924;2022-10-16T00:05:28;13.00;99.90
43087;DHT22;28708;52.224;6.924;2022-10-16T00:07:54;13.10;99.90
43087;DHT22;28708;52.224;6.924;2022-10-16T00:10:20;13.00;99.90
43087;DHT22;28708;52.224;6.924;2022-10-16T00:12:46;13.00;99.90
43087;DHT22;28708;52.224;6.924;2022-10-16T00:15:12;13.00;99.90
43087;DHT22;28708;52.224;6.924;2022-10-16T00:17:38;13.00;99.90
43087;DHT22;28708;52.224;6.924;2022-10-16T00:20:04;13.00;99.90
43087;DHT22;28708;52.224;6.924;2022-10-16T00:22:30;13.10;99.90
43087;DHT22;28708;52.224;6.924;2022-10-16T00:24:56;13.10;99.90
43087;DHT22;28708;52.224;6.924;2022-10-16T00:27:22;13.10;99.90
43087;DHT22;28708;52.224;6.924;2022-10-16T00:29:51;13.00;99.90
43087;DHT22;28708;52.224;6.924;2022-10-16T00:32:19;13.00;99.90
43087;DHT22;28708;52.224;6.924;2022-10-16T00:34:45;13.00;99.90
43087;DHT22;28708;52.224;6.924;2022-10-16T00:37:12;13.00;99.90
43087;DHT22;28708;52.224;6.924;2022-10-16T00:39:38;13.00;99.90
43087;DHT22;28708;52.224;6.924;2022-10-16T00:42:05;12.90;99.90
43087;DHT22;28708;52.224;6.924;2022-10-16T00:44:51;12.90;99.90
43087;DHT22;28708;52.224;6.924;2022-10-16T00:47:32;12.80;99.90
43087;DHT22;28708;52.224;6.924;2022-10-16T00:52:41;12.80;99.90
43087;DHT22;28708;52.224;6.924;2022-10-16T00:55:09;12.70;99.90
43087;DHT22;28708;52.224;6.924;2022-10-16T00:57:35;12.70;99.90
43087;DHT22;28708;52.224;6.924;2022-10-16T01:00:04;12.80;99.90
43087;DHT22;28708;52.224;6.924;2022-10-16T01:02:31;12.70;99.90
43087;DHT22;28708;52.224;6.924;2022-10-16T01:04:57;12.70;99.90
43087;DHT22;28708;52.224;6.924;2022-10-16T01:07:45;12.70;99.90
43087;DHT22;28708;52.224;6.924;2022-10-16T01:13:18;12.70;99.90
43087;DHT22;28708;52.224;6.924;2022-10-16T01:16:05;12.60;99.90
43087;DHT22;28708;52.224;6.924;2022-10-16T01:18:49;12.60;99.90
43087;DHT22;28708;52.224;6.924;2022-10-16T01:21:23;12.60;99.90
43087;DHT22;28708;52.224;6.924;2022-10-16T01:27:12;12.60;99.90
43087;DHT22;28708;52.224;6.924;2022-10-16T01:29:48;12.60;99.90
43087;DHT22;28708;52.224;6.924;2022-10-16T01:32:40;12.60;99.90
43087;DHT22;28708;52.224;6.924;2022-10-16T01:35:11;12.60;99.90
43087;DHT22;28708;52.224;6.924;2022-10-16T01:40:27;12.50;99.90
43087;DHT22;28708;52.224;6.924;2022-10-16T01:43:04;12.50;99.90
43087;DHT22;28708;52.224;6.924;2022-10-16T01:45:33;12.50;99.90
43087;DHT22;28708;52.224;6.924;2022-10-16T01:48:01;12.50;99.90
43087;DHT22;28708;52.224;6.924;2022-10-16T01:50:32;12.50;99.90
43087;DHT22;28708;52.224;6.924;2022-10-16T01:53:02;12.50;99.90
43087;DHT22;28708;52.224;6.924;2022-10-16T01:55:31;12.50;99.90
43087;DHT22;28708;52.224;6.924;2022-10-16T01:57:58;12.50;99.90
43087;DHT22;28708;52.224;6.924;2022-10-16T02:00:26;12.50;99.90
43087;DHT22;28708;52.224;6.924;2022-10-16T02:02:53;12.40;99.90
43087;DHT22;28708;52.224;6.924;2022-10-16T02:05:40;12.50;99.90
43087;DHT22;28708;52.224;6.924;2022-10-16T02:08:07;12.50;99.90
43087;DHT22;28708;52.224;6.924;2022-10-16T02:10:34;12.50;99.90
43087;DHT22;28708;52.224;6.924;2022-10-16T02:13:21;12.50;99.90
43087;DHT22;28708;52.224;6.924;2022-10-16T02:15:48;12.40;99.90
43087;DHT22;28708;52.224;6.924;2022-10-16T02:18:15;12.40;99.90
43087;DHT22;28708;52.224;6.924;2022-10-16T02:20:55;12.40;99.90
43087;DHT22;28708;52.224;6.924;2022-10-16T02:23:42;12.50;99.90
43087;DHT22;28708;52.224;6.924;2022-10-16T02:26:16;12.50;99.90
43087;DHT22;28708;52.224;6.924;2022-10-16T02:28:48;12.50;99.90
43087;DHT22;28708;52.224;6.924;2022-10-16T02:31:23;12.50;99.90
43087;DHT22;28708;52.224;6.924;2022-10-16T02:33:51;12.50;99.90
43087;DHT22;28708;52.224;6.924;2022-10-16T02:36:18;12.50;99.90
43087;DHT22;28708;52.224;6.924;2022-10-16T02:38:44;12.50;99.90
43087;DHT22;28708;52.224;6.924;2022-10-16T02:41:11;12.60;99.90
43087;DHT22;28708;52.224;6.924;2022-10-16T02:43:37;12.60;99.90
43087;DHT22;28708;52.224;6.924;2022-10-16T02:46:03;12.70;99.90
43087;DHT22;28708;52.224;6.924;2022-10-16T02:48:29;12.70;99.90
43087;DHT22;28708;52.224;6.924;2022-10-16T02:50:55;12.70;99.90
43087;DHT22;28708;52.224;6.924;2022-10-16T02:53:21;12.70;99.90
43087;DHT22;28708;52.224;6.924;2022-10-16T02:55:47;12.70;99.90
43087;DHT22;28708;52.224;6.924;2022-10-16T02:58:12;12.70;99.90
43087;DHT22;28708;52.224;6.924;2022-10-16T03:00:39;12.70;99.90
43087;DHT22;28708;52.224;6.924;2022-10-16T03:03:04;12.70;99.90
43087;DHT22;28708;52.224;6.924;2022-10-16T03:05:30;12.80;99.90
43087;DHT22;28708;52.224;6.924;2022-10-16T03:07:56;12.80;99.90
43087;DHT22;28708;52.224;6.924;2022-10-16T03:10:22;12.80;99.90
43087;DHT22;28708;52.224;6.924;2022-10-16T03:12:48;12.90;99.90
43087;DHT22;28708;52.224;6.924;2022-10-16T03:15:14;12.90;99.90
43087;DHT22;28708;52.224;6.924;2022-10-16T03:17:39;12.90;99.90
43087;DHT22;28708;52.224;6.924;2022-10-16T03:20:06;13.00;99.90
43087;DHT22;28708;52.224;6.924;2022-10-16T03:22:32;13.00;99.90
43087;DHT22;28708;52.224;6.924;2022-10-16T03:24:57;13.10;99.90
43087;DHT22;28708;52.224;6.924;2022-10-16T03:27:23;13.00;99.90
43087;DHT22;28708;52.224;6.924;2022-10-16T03:29:52;13.00;99.90
43087;DHT22;28708;52.224;6.924;2022-10-16T03:32:18;13.00;99.90
43087;DHT22;28708;52.224;6.924;2022-10-16T03:34:45;13.00;99.90
43087;DHT22;28708;52.224;6.924;2022-10-16T03:37:11;13.00;99.90
43087;DHT22;28708;52.224;6.924;2022-10-16T03:39:37;13.10;99.90
43087;DHT22;28708;52.224;6.924;2022-10-16T03:42:03;13.00;99.90
43087;DHT22;28708;52.224;6.924;2022-10-16T03:44:29;13.00;99.90
43087;DHT22;28708;52.224;6.924;2022-10-16T03:46:54;13.00;99.90
43087;DHT22;28708;52.224;6.924;2022-10-16T03:49:20;13.00;99.90
43087;DHT22;28708;52.224;6.924;2022-10-16T03:51:46;13.00;99.90
43087;DHT22;28708;52.224;6.924;2022-10-16T03:54:12;13.00;99.90
43087;DHT22;28708;52.224;6.924;2022-10-16T03:56:38;13.00;99.90
43087;DHT22;28708;52.224;6.924;2022-10-16T03:59:04;13.00;99.90
43087;DHT22;28708;52.224;6.924;2022-10-16T04:01:30;13.00;99.90
43087;DHT22;28708;52.224;6.924;2022-10-16T04:03:56;13.00;99.90
43087;DHT22;28708;52.224;6.924;2022-10-16T04:06:22;13.00;99.90
43087;DHT22;28708;52.224;6.924;2022-10-16T04:08:48;12.90;99.90
43087;DHT22;28708;52.224;6.924;2022-10-16T04:11:15;13.00;99.90
43087;DHT22;28708;52.224;6.924;2022-10-16T04:13:41;12.90;99.90
43087;DHT22;28708;52.224;6.924;2022-10-16T04:16:09;12.90;99.90
43087;DHT22;28708;52.224;6.924;2022-10-16T04:18:35;12.90;99.90
43087;DHT22;28708;52.224;6.924;2022-10-16T04:21:05;12.90;99.90
43087;DHT22;28708;52.224;6.924;2022-10-16T04:23:32;12.90;99.90
43087;DHT22;28708;52.224;6.924;2022-10-16T04:25:58;12.90;99.90
43087;DHT22;28708;52.224;6.924;2022-10-16T04:28:25;12.90;99.90
43087;DHT22;28708;52.224;6.924;2022-10-16T04:30:50;12.80;99.90
43087;DHT22;28708;52.224;6.924;2022-10-16T04:33:16;12.80;99.90
43087;DHT22;28708;52.224;6.924;2022-10-16T04:35:42;12.70;99.90
43087;DHT22;28708;52.224;6.924;2022-10-16T04:38:08;12.80;99.90
43087;DHT22;28708;52.224;6.924;2022-10-16T04:40:34;12.70;99.90
43087;DHT22;28708;52.224;6.924;2022-10-16T04:43:02;12.70;99.90
43087;DHT22;28708;52.224;6.924;2022-10-16T04:45:28;12.70;99.90
43087;DHT22;28708;52.224;6.924;2022-10-16T04:48:06;12.70;99.90
43087;DHT22;28708;52.224;6.924;2022-10-16T04:50:32;12.70;99.90
43087;DHT22;28708;52.224;6.924;2022-10-16T04:53:05;12.70;99.90
43087;DHT22;28708;52.224;6.924;2022-10-16T04:55:31;12.70;99.90
43087;DHT22;28708;52.224;6.924;2022-10-16T04:57:56;12.60;99.90
43087;DHT22;28708;52.224;6.924;2022-10-16T05:00:22;12.60;99.90
43087;DHT22;28708;52.224;6.924;2022-10-16T05:02:50;12.60;99.90
43087;DHT22;28708;52.224;6.924;2022-10-16T05:05:16;12.60;99.90
43087;DHT22;28708;52.224;6.924;2022-10-16T05:07:42;12.60;99.90
43087;DHT22;28708;52.224;6.924;2022-10-16T05:10:07;12.60;99.90
43087;DHT22;28708;52.224;6.924;2022-10-16T05:12:33;12.60;99.90
43087;DHT22;28708;52.224;6.924;2022-10-16T05:14:59;12.60;99.90
43087;DHT22;28708;52.224;6.924;2022-10-16T05:17:25;12.60;99.90
43087;DHT22;28708;52.224;6.924;2022-10-16T05:19:51;12.60;99.90
43087;DHT22;28708;52.224;6.924;2022-10-16T05:22:17;12.60;99.90
43087;DHT22;28708;52.224;6.924;2022-10-16T05:24:43;12.60;99.90
43087;DHT22;28708;52.224;6.924;2022-10-16T05:27:10;12.60;99.90
43087;DHT22;28708;52.224;6.924;2022-10-16T05:29:37;12.60;99.90
43087;DHT22;28708;52.224;6.924;2022-10-16T05:32:03;12.60;99.90
43087;DHT22;28708;52.224;6.924;2022-10-16T05:34:28;12.60;99.90
43087;DHT22;28708;52.224;6.924;2022-10-16T05:36:54;12.60;99.90
43087;DHT22;28708;52.224;6.924;2022-10-16T05:39:20;12.60;99.90
43087;DHT22;28708;52.224;6.924;2022-10-16T05:41:46;12.60;99.90
43087;DHT22;28708;52.224;6.924;2022-10-16T05:44:12;12.60;99.90
43087;DHT22;28708;52.224;6.924;2022-10-16T05:46:38;12.50;99.90
43087;DHT22;28708;52.224;6.924;2022-10-16T05:49:06;12.60;99.90
43087;DHT22;28708;52.224;6.924;2022-10-16T05:51:32;12.60;99.90
43087;DHT22;28708;52.224;6.924;2022-10-16T05:53:58;12.60;99.90
43087;DHT22;28708;52.224;6.924;2022-10-16T05:56:24;12.60;99.90
43087;DHT22;28708;52.224;6.924;2022-10-16T05:58:50;12.60;99.90
43087;DHT22;28708;52.224;6.924;2022-10-16T06:01:18;12.50;99.90
43087;DHT22;28708;52.224;6.924;2022-10-16T06:03:44;12.50;99.90
43087;DHT22;28708;52.224;6.924;2022-10-16T06:06:18;12.50;99.90
43087;DHT22;28708;52.224;6.924;2022-10-16T06:08:45;12.50;99.90
43087;DHT22;28708;52.224;6.924;2022-10-16T06:11:14;12.50;99.90
43087;DHT22;28708;52.224;6.924;2022-10-16T06:13:40;12.50;99.90
43087;DHT22;28708;52.224;6.924;2022-10-16T06:16:12;12.50;99.90
43087;DHT22;28708;52.224;6.924;2022-10-16T06:18:38;12.50;99.90
43087;DHT22;28708;52.224;6.924;2022-10-16T06:21:12;12.50;99.90
43087;DHT22;28708;52.224;6.924;2022-10-16T06:23:39;12.50;99.90
43087;DHT22;28708;52.224;6.924;2022-10-16T06:26:10;12.50;99.90
43087;DHT22;28708;52.224;6.924;2022-10-16T06:28:37;12.50;99.90
43087;DHT22;28708;52.224;6.924;2022-10-16T06:31:04;12.50;99.90
43087;DHT22;28708;52.224;6.924;2022-10-16T06:33:30;12.50;99.90
43087;DHT22;28708;52.224;6.924;2022-10-16T06:36:01;12.50;99.90
43087;DHT22;28708;52.224;6.924;2022-10-16T06:38:28;12.50;99.90
43087;DHT22;28708;52.224;6.924;2022-10-16T06:40:54;12.50;99.90
43087;DHT22;28708;52.224;6.924;2022-10-16T06:43:20;12.50;99.90
43087;DHT22;28708;52.224;6.924;2022-10-16T06:45:56;12.50;99.90
43087;DHT22;28708;52.224;6.924;2022-10-16T06:48:23;12.50;99.90
43087;DHT22;28708;52.224;6.924;2022-10-16T06:51:03;12.60;99.90
43087;DHT22;28708;52.224;6.924;2022-10-16T06:53:32;12.60;99.90
43087;DHT22;28708;52.224;6.924;2022-10-16T06:56:15;12.60;99.90
43087;DHT22;28708;52.224;6.924;2022-10-16T06:58:42;12.60;99.90
43087;DHT22;28708;52.224;6.924;2022-10-16T07:01:08;12.60;99.90
43087;DHT22;28708;52.224;6.924;2022-10-16T07:03:39;12.70;99.90
43087;DHT22;28708;52.224;6.924;2022-10-16T07:06:06;12.80;99.90
43087;DHT22;28708;52.224;6.924;2022-10-16T07:08:37;12.80;99.90
43087;DHT22;28708;52.224;6.924;2022-10-16T07:11:05;12.90;99.90
43087;DHT22;28708;52.224;6.924;2022-10-16T07:13:36;13.00;99.90
43087;DHT22;28708;52.224;6.924;2022-10-16T07:16:09;13.00;99.90
43087;DHT22;28708;52.224;6.924;2022-10-16T07:18:35;13.10;99.90
43087;DHT22;28708;52.224;6.924;2022-10-16T07:23:59;13.40;99.90
43087;DHT22;28708;52.224;6.924;2022-10-16T07:26:27;13.60;99.90
43087;DHT22;28708;52.224;6.924;2022-10-16T07:28:53;13.70;99.90
43087;DHT22;28708;52.224;6.924;2022-10-16T07:31:20;13.90;99.90
43087;DHT22;28708;52.224;6.924;2022-10-16T07:33:46;14.00;99.90
43087;DHT22;28708;52.224;6.924;2022-10-16T07:36:15;14.10;99.90
43087;DHT22;28708;52.224;6.924;2022-10-16T07:38:41;14.10;99.90
43087;DHT22;28708;52.224;6.924;2022-10-16T07:41:10;14.10;99.90
43087;DHT22;28708;52.224;6.924;2022-10-16T07:43:36;14.20;99.90
43087;DHT22;28708;52.224;6.924;2022-10-16T07:46:02;14.10;99.90
43087;DHT22;28708;52.224;6.924;2022-10-16T07:48:31;14.20;99.90
43087;DHT22;28708;52.224;6.924;2022-10-16T07:51:05;14.20;99.90
43087;DHT22;28708;52.224;6.924;2022-10-16T07:53:32;14.20;99.90
43087;DHT22;28708;52.224;6.924;2022-10-16T07:56:03;14.10;99.90
43087;DHT22;28708;52.224;6.924;2022-10-16T07:58:29;14.10;99.90
43087;DHT22;28708;52.224;6.924;2022-10-16T08:00:56;14.20;99.90
43087;DHT22;28708;52.224;6.924;2022-10-16T08:03:22;14.10;99.90
43087;DHT22;28708;52.224;6.924;2022-10-16T08:05:49;14.20;99.90
43087;DHT22;28708;52.224;6.924;2022-10-16T08:08:19;14.30;99.90
43087;DHT22;28708;52.224;6.924;2022-10-16T08:10:45;14.40;99.90
43087;DHT22;28708;52.224;6.924;2022-10-16T08:13:11;14.60;99.90
43087;DHT22;28708;52.224;6.924;2022-10-16T08:15:38;14.60;99.90
43087;DHT22;28708;52.224;6.924;2022-10-16T08:18:05;14.60;99.90
43087;DHT22;28708;52.224;6.924;2022-10-16T08:20:31;14.70;99.90
43087;DHT22;28708;52.224;6.924;2022-10-16T08:22:59;14.80;99.90
43087;DHT22;28708;52.224;6.924;2022-10-16T08:25:25;14.80;99.90
43087;DHT22;28708;52.224;6.924;2022-10-16T08:27:51;15.00;99.90
43087;DHT22;28708;52.224;6.924;2022-10-16T08:30:19;15.30;99.90
43087;DHT22;28708;52.224;6.924;2022-10-16T08:32:45;15.60;99.90
43087;DHT22;28708;52.224;6.924;2022-10-16T08:35:12;15.80;99.90
43087;DHT22;28708;52.224;6.924;2022-10-16T08:37:39;15.80;99.90
43087;DHT22;28708;52.224;6.924;2022-10-16T08:40:19;15.70;99.90
43087;DHT22;28708;52.224;6.924;2022-10-16T08:50:51;15.60;99.90
43087;DHT22;28708;52.224;6.924;2022-10-16T08:53:43;15.60;99.90
43087;DHT22;28708;52.224;6.924;2022-10-16T08:56:10;15.60;99.90
43087;DHT22;28708;52.224;6.924;2022-10-16T08:58:36;15.60;99.90
43087;DHT22;28708;52.224;6.924;2022-10-16T09:01:04;15.50;99.90
43087;DHT22;28708;52.224;6.924;2022-10-16T09:12:05;15.60;99.90
43087;DHT22;28708;52.224;6.924;2022-10-16T09:14:50;15.50;99.90
43087;DHT22;28708;52.224;6.924;2022-10-16T09:22:45;16.10;99.90
43087;DHT22;28708;52.224;6.924;2022-10-16T09:25:17;16.00;99.90
43087;DHT22;28708;52.224;6.924;2022-10-16T09:27:47;16.10;99.90
43087;DHT22;28708;52.224;6.924;2022-10-16T09:30:18;16.20;99.90
43087;DHT22;28708;52.224;6.924;2022-10-16T09:32:46;16.60;99.90
43087;DHT22;28708;52.224;6.924;2022-10-16T09:38:05;18.20;99.90
43087;DHT22;28708;52.224;6.924;2022-10-16T09:40:36;17.70;99.90
43087;DHT22;28708;52.224;6.924;2022-10-16T09:46:06;18.70;99.90
43087;DHT22;28708;52.224;6.924;2022-10-16T09:48:38;18.70;99.90
43087;DHT22;28708;52.224;6.924;2022-10-16T09:51:13;17.90;99.90
43087;DHT22;28708;52.224;6.924;2022-10-16T09:53:44;17.10;99.90
43087;DHT22;28708;52.224;6.924;2022-10-16T09:56:11;18.10;99.90
43087;DHT22;28708;52.224;6.924;2022-10-16T09:58:43;20.40;99.90
43087;DHT22;28708;52.224;6.924;2022-10-16T10:01:14;21.80;99.90
43087;DHT22;28708;52.224;6.924;2022-10-16T10:03:42;20.00;99.90
43087;DHT22;28708;52.224;6.924;2022-10-16T10:06:18;21.00;99.90
43087;DHT22;28708;52.224;6.924;2022-10-16T10:09:06;23.60;99.90
43087;DHT22;28708;52.224;6.924;2022-10-16T10:16:46;20.60;99.90
43087;DHT22;28708;52.224;6.924;2022-10-16T10:19:18;22.00;99.90
43087;DHT22;28708;52.224;6.924;2022-10-16T10:21:46;23.20;99.90
43087;DHT22;28708;52.224;6.924;2022-10-16T10:24:17;22.00;99.90
43087;DHT22;28708;52.224;6.924;2022-10-16T10:32:28;21.40;99.90
43087;DHT22;28708;52.224;6.924;2022-10-16T10:50:07;22.20;99.90
43087;DHT22;28708;52.224;6.924;2022-10-16T10:52:48;22.00;99.90
43087;DHT22;28708;52.224;6.924;2022-10-16T10:55:31;22.60;99.90
43087;DHT22;28708;52.224;6.924;2022-10-16T11:00:55;24.00;99.90
43087;DHT22;28708;52.224;6.924;2022-10-16T11:03:32;24.40;99.90
43087;DHT22;28708;52.224;6.924;2022-10-16T11:09:13;23.00;99.90
43087;DHT22;28708;52.224;6.924;2022-10-16T11:11:50;22.30;99.90
43087;DHT22;28708;52.224;6.924;2022-10-16T11:14:43;23.10;99.90
43087;DHT22;28708;52.224;6.924;2022-10-16T11:17:16;23.00;99.90
43087;DHT22;28708;52.224;6.924;2022-10-16T11:19:51;23.30;99.90
43087;DHT22;28708;52.224;6.924;2022-10-16T11:27:42;23.70;99.90
43087;DHT22;28708;52.224;6.924;2022-10-16T11:30:18;24.80;99.90
43087;DHT22;28708;52.224;6.924;2022-10-16T11:35:55;24.30;99.90
43087;DHT22;28708;52.224;6.924;2022-10-16T11:39:34;23.30;99.90
43087;DHT22;28708;52.224;6.924;2022-10-16T11:49:33;19.00;99.90
43087;DHT22;28708;52.224;6.924;2022-10-16T11:54:50;18.60;99.90
43087;DHT22;28708;52.224;6.924;2022-10-16T11:57:22;18.50;99.90
43087;DHT22;28708;52.224;6.924;2022-10-16T12:08:37;18.30;99.90
43087;DHT22;28708;52.224;6.924;2022-10-16T12:11:31;18.10;99.90
43087;DHT22;28708;52.224;6.924;2022-10-16T12:17:20;18.40;99.90
43087;DHT22;28708;52.224;6.924;2022-10-16T12:20:17;18.60;99.90
43087;DHT22;28708;52.224;6.924;2022-10-16T12:25:29;18.90;99.90
43087;DHT22;28708;52.224;6.924;2022-10-16T12:28:19;18.70;99.90
43087;DHT22;28708;52.224;6.924;2022-10-16T12:31:14;19.00;99.90
43087;DHT22;28708;52.224;6.924;2022-10-16T12:33:41;19.20;99.90
43087;DHT22;28708;52.224;6.924;2022-10-16T12:36:26;19.20;99.90
43087;DHT22;28708;52.224;6.924;2022-10-16T12:38:53;19.20;99.90
43087;DHT22;28708;52.224;6.924;2022-10-16T12:41:34;19.20;99.90
43087;DHT22;28708;52.224;6.924;2022-10-16T12:44:01;19.40;99.90
43087;DHT22;28708;52.224;6.924;2022-10-16T12:51:53;19.60;99.90
43087;DHT22;28708;52.224;6.924;2022-10-16T12:54:31;19.70;99.90
43087;DHT22;28708;52.224;6.924;2022-10-16T12:59:42;19.00;99.90
43087;DHT22;28708;52.224;6.924;2022-10-16T13:08:01;19.10;99.90
43087;DHT22;28708;52.224;6.924;2022-10-16T13:19:48;18.30;99.90
43087;DHT22;28708;52.224;6.924;2022-10-16T13:27:41;18.80;99.90
43087;DHT22;28708;52.224;6.924;2022-10-16T13:30:17;18.80;99.90
43087;DHT22;28708;52.224;6.924;2022-10-16T13:32:48;18.90;99.90
43087;DHT22;28708;52.224;6.924;2022-10-16T13:35:46;19.20;99.90
43087;DHT22;28708;52.224;6.924;2022-10-16T13:38:15;19.50;99.90
43087;DHT22;28708;52.224;6.924;2022-10-16T13:40:57;19.50;99.90
43087;DHT22;28708;52.224;6.924;2022-10-16T13:43:31;19.50;99.90
43087;DHT22;28708;52.224;6.924;2022-10-16T13:46:04;19.70;99.90
43087;DHT22;28708;52.224;6.924;2022-10-16T13:48:31;19.50;99.90
43087;DHT22;28708;52.224;6.924;2022-10-16T13:53:31;19.00;99.90
43087;DHT22;28708;52.224;6.924;2022-10-16T13:55:57;18.90;99.90
43087;DHT22;28708;52.224;6.924;2022-10-16T13:58:25;18.50;99.90
43087;DHT22;28708;52.224;6.924;2022-10-16T14:01:03;18.60;99.90
43087;DHT22;28708;52.224;6.924;2022-10-16T14:03:32;18.90;99.90
43087;DHT22;28708;52.224;6.924;2022-10-16T14:06:01;19.20;99.90
43087;DHT22;28708;52.224;6.924;2022-10-16T14:08:29;19.60;99.90
43087;DHT22;28708;52.224;6.924;2022-10-16T14:10:57;19.70;99.90
43087;DHT22;28708;52.224;6.924;2022-10-16T14:15:56;19.80;99.90
43087;DHT22;28708;52.224;6.924;2022-10-16T14:18:25;19.70;99.90
43087;DHT22;28708;52.224;6.924;2022-10-16T14:20:52;19.50;99.90
43087;DHT22;28708;52.224;6.924;2022-10-16T14:23:44;19.30;99.90
43087;DHT22;28708;52.224;6.924;2022-10-16T14:28:39;19.40;99.90
43087;DHT22;28708;52.224;6.924;2022-10-16T14:32:03;19.50;99.90
43087;DHT22;28708;52.224;6.924;2022-10-16T14:34:38;19.70;99.90
43087;DHT22;28708;52.224;6.924;2022-10-16T14:37:23;19.70;99.90
43087;DHT22;28708;52.224;6.924;2022-10-16T14:39:51;19.70;99.90
43087;DHT22;28708;52.224;6.924;2022-10-16T14:42:19;19.60;99.90
43087;DHT22;28708;52.224;6.924;2022-10-16T14:44:46;19.50;99.90
43087;DHT22;28708;52.224;6.924;2022-10-16T14:47:17;19.40;99.90
43087;DHT22;28708;52.224;6.924;2022-10-16T14:49:48;19.30;99.90
43087;DHT22;28708;52.224;6.924;2022-10-16T14:52:14;19.00;99.90
43087;DHT22;28708;52.224;6.924;2022-10-16T14:54:40;18.70;99.90
43087;DHT22;28708;52.224;6.924;2022-10-16T14:57:17;18.90;99.90
43087;DHT22;28708;52.224;6.924;2022-10-16T14:59:44;19.20;99.90
43087;DHT22;28708;52.224;6.924;2022-10-16T15:04:54;19.40;99.90
43087;DHT22;28708;52.224;6.924;2022-10-16T15:07:20;19.40;99.90
43087;DHT22;28708;52.224;6.924;2022-10-16T15:09:46;18.90;99.90
43087;DHT22;28708;52.224;6.924;2022-10-16T15:12:12;18.50;99.90
43087;DHT22;28708;52.224;6.924;2022-10-16T15:14:38;18.30;99.90
43087;DHT22;28708;52.224;6.924;2022-10-16T15:17:04;18.10;99.90
43087;DHT22;28708;52.224;6.924;2022-10-16T15:19:30;18.00;99.90
43087;DHT22;28708;52.224;6.924;2022-10-16T15:21:56;18.00;99.90
43087;DHT22;28708;52.224;6.924;2022-10-16T15:24:22;17.90;99.90
43087;DHT22;28708;52.224;6.924;2022-10-16T15:26:48;17.90;99.90
43087;DHT22;28708;52.224;6.924;2022-10-16T15:29:17;17.90;99.90
43087;DHT22;28708;52.224;6.924;2022-10-16T15:31:43;17.90;99.90
43087;DHT22;28708;52.224;6.924;2022-10-16T15:34:10;18.00;99.90
43087;DHT22;28708;52.224;6.924;2022-10-16T15:36:37;17.90;99.90
43087;DHT22;28708;52.224;6.924;2022-10-16T15:39:21;17.90;99.90
43087;DHT22;28708;52.224;6.924;2022-10-16T15:41:47;17.80;99.90
43087;DHT22;28708;52.224;6.924;2022-10-16T15:44:19;17.80;99.90
43087;DHT22;28708;52.224;6.924;2022-10-16T15:46:46;17.80;99.90
43087;DHT22;28708;52.224;6.924;2022-10-16T15:49:13;17.70;99.90
43087;DHT22;28708;52.224;6.924;2022-10-16T15:51:40;17.40;99.90
43087;DHT22;28708;52.224;6.924;2022-10-16T15:54:06;17.30;99.90
43087;DHT22;28708;52.224;6.924;2022-10-16T15:56:32;17.30;99.90
43087;DHT22;28708;52.224;6.924;2022-10-16T15:58:59;17.10;99.90
43087;DHT22;28708;52.224;6.924;2022-10-16T16:01:26;17.00;99.90
43087;DHT22;28708;52.224;6.924;2022-10-16T16:03:53;16.90;99.90
43087;DHT22;28708;52.224;6.924;2022-10-16T16:06:19;16.90;99.90
43087;DHT22;28708;52.224;6.924;2022-10-16T16:08:45;16.90;99.90
43087;DHT22;28708;52.224;6.924;2022-10-16T16:11:14;16.90;99.90
43087;DHT22;28708;52.224;6.924;2022-10-16T16:13:40;16.80;99.90
43087;DHT22;28708;52.224;6.924;2022-10-16T16:16:09;16.60;99.90
43087;DHT22;28708;52.224;6.924;2022-10-16T16:18:35;16.40;99.90
43087;DHT22;28708;52.224;6.924;2022-10-16T16:21:02;16.20;99.90
43087;DHT22;28708;52.224;6.924;2022-10-16T16:23:28;16.10;99.90
43087;DHT22;28708;52.224;6.924;2022-10-16T16:26:13;16.00;99.90
43087;DHT22;28708;52.224;6.924;2022-10-16T16:28:41;15.90;99.90
43087;DHT22;28708;52.224;6.924;2022-10-16T16:31:07;15.70;99.90
43087;DHT22;28708;52.224;6.924;2022-10-16T16:33:33;15.60;99.90
43087;DHT22;28708;52.224;6.924;2022-10-16T16:36:00;15.50;99.90
43087;DHT22;28708;52.224;6.924;2022-10-16T16:38:27;15.50;99.90
43087;DHT22;28708;52.224;6.924;2022-10-16T16:40:53;15.40;99.90
43087;DHT22;28708;52.224;6.924;2022-10-16T16:43:23;15.40;99.90
43087;DHT22;28708;52.224;6.924;2022-10-16T16:45:52;15.30;99.90
43087;DHT22;28708;52.224;6.924;2022-10-16T16:48:18;15.20;99.90
43087;DHT22;28708;52.224;6.924;2022-10-16T16:50:44;15.20;99.90
43087;DHT22;28708;52.224;6.924;2022-10-16T16:53:10;15.10;99.90
43087;DHT22;28708;52.224;6.924;2022-10-16T16:55:36;15.00;99.90
43087;DHT22;28708;52.224;6.924;2022-10-16T16:58:02;15.00;99.90
43087;DHT22;28708;52.224;6.924;2022-10-16T17:00:29;14.90;99.90
43087;DHT22;28708;52.224;6.924;2022-10-16T17:02:56;14.90;99.90
43087;DHT22;28708;52.224;6.924;2022-10-16T17:05:22;14.90;99.90
43087;DHT22;28708;52.224;6.924;2022-10-16T17:07:48;14.90;99.90
43087;DHT22;28708;52.224;6.924;2022-10-16T17:10:14;14.80;99.90
43087;DHT22;28708;52.224;6.924;2022-10-16T17:12:40;14.80;99.90
43087;DHT22;28708;52.224;6.924;2022-10-16T17:15:06;14.80;99.90
43087;DHT22;28708;52.224;6.924;2022-10-16T17:17:32;14.70;99.90
43087;DHT22;28708;52.224;6.924;2022-10-16T17:19:58;14.70;99.90
43087;DHT22;28708;52.224;6.924;2022-10-16T17:22:24;14.60;99.90
43087;DHT22;28708;52.224;6.924;2022-10-16T17:24:50;14.50;99.90
43087;DHT22;28708;52.224;6.924;2022-10-16T17:27:17;14.50;99.90
43087;DHT22;28708;52.224;6.924;2022-10-16T17:29:44;14.50;99.90
43087;DHT22;28708;52.224;6.924;2022-10-16T17:32:10;14.50;99.90
43087;DHT22;28708;52.224;6.924;2022-10-16T17:34:36;14.50;99.90
43087;DHT22;28708;52.224;6.924;2022-10-16T17:37:02;14.50;99.90
43087;DHT22;28708;52.224;6.924;2022-10-16T17:39:28;14.50;99.90
43087;DHT22;28708;52.224;6.924;2022-10-16T17:41:54;14.50;99.90
43087;DHT22;28708;52.224;6.924;2022-10-16T17:44:20;14.50;99.90
43087;DHT22;28708;52.224;6.924;2022-10-16T17:46:51;14.40;99.90
43087;DHT22;28708;52.224;6.924;2022-10-16T17:49:17;14.40;99.90
43087;DHT22;28708;52.224;6.924;2022-10-16T17:51:43;14.40;99.90
43087;DHT22;28708;52.224;6.924;2022-10-16T17:54:09;14.40;99.90
43087;DHT22;28708;52.224;6.924;2022-10-16T17:56:36;14.30;99.90
43087;DHT22;28708;52.224;6.924;2022-10-16T17:59:03;14.40;99.90
43087;DHT22;28708;52.224;6.924;2022-10-16T18:01:31;14.40;99.90
43087;DHT22;28708;52.224;6.924;2022-10-16T18:04:01;14.40;99.90
43087;DHT22;28708;52.224;6.924;2022-10-16T18:06:28;14.30;99.90
43087;DHT22;28708;52.224;6.924;2022-10-16T18:08:56;14.30;99.90
43087;DHT22;28708;52.224;6.924;2022-10-16T18:11:23;14.30;99.90